Terminal Aerodrome Forecast
Issued by NWS Mt. Holly, NJ

Home | Current Version | Previous Version | Text Only | Print | Product List | Glossary On
Versions: 1 2 3 4 5 6 7 8 9 10 11 12 13 14 15 16 17 18 19 20 21 22 23 24
000
FTUS41 KPHI 051736
TAFPHL
TAF
KPHL 051736Z 0518/0624 28009KT P6SM SCT015 OVC040
      TEMPO 0518/0520 BKN015
     FM052000 31010KT P6SM SCT040
     FM060000 32007KT P6SM FEW040
     FM060600 35006KT P6SM SCT200
     FM061200 06007KT P6SM BKN150
     FM062100 10008KT 5SM -RA BR SCT015 OVC035=

USA.gov is the U.S. government's official web portal to all federal, state and local government web resources and services.